Quick Links (Output Below):   Max & Min Temps   /   Climate Reports   /   Zone Forecasts
River Forecasts   /   Forestry Forecasts   /   Aviation Forecasts   /   Radars   /   Features

Terminal Aerodrome Forecast (Fort Smith)

Pick a Site:
Arkadelphia | El Dorado | Fayetteville | Fort Smith | Harrison | Highfill | Hot Springs | Jonesboro
Little Rock | Monticello | Mountain Home | Pine Bluff | Texarkana
 Forecast 

KFSM 020520Z 0206/0306 07003KT P6SM SCT250
     FM021500 15009KT P6SM BKN250
     FM022100 20010KT P6SM BKN250 PROB30 0221/0224 3SM -TSRA
      BKN050CB
     FM030000 20010KT P6SM BKN250
      TEMPO 0300/0304 1SM +TSRA BKN030CB
     FM030400 27009KT P6SM VCSH BKN100=


 Latest METARs (Observations) 
How to Decode METARs
10Z KFSM 020953Z AUTO 08003KT 10SM OVC031 24/21 A2978 RMK AO2 SLP078
         T02390211
         
09Z KFSM 020853Z AUTO 09003KT 10SM BKN035 23/21 A2979 RMK AO2 SLP081
         T02280206 56008
         
08Z KFSM 020753Z AUTO 12005KT 10SM OVC037 24/21 A2979 RMK AO2 SLP081
         T02390206
         
07Z KFSM 020653Z AUTO 07003KT 10SM FEW037 23/20 A2980 RMK AO2 SLP083
         T02280200
         
06Z KFSM 020553Z AUTO 07004KT 10SM SCT038 BKN120 23/20 A2981 RMK AO2
         SLP088 T02330200 10283 20228 403170183 53000
         
05Z KFSM 020453Z AUTO 08003KT 10SM FEW110 23/20 A2980 RMK AO2 SLP087
         T02330200
         
04Z KFSM 020353Z AUTO 07005KT 10SM CLR 23/20 A2981 RMK AO2 SLP088
         T02280200
         
03Z KFSM 020253Z 07004KT 10SM CLR 24/20 A2981 RMK AO2 SLP089 T02390200
         53013
         
02Z KFSM 020153Z 00000KT 10SM CLR 26/20 A2980 RMK AO2 SLP084
         T02560200
         
01Z KFSM 020053Z 15004KT 10SM CLR 26/21 A2978 RMK AO2 SLP080
         T02610206
         
***** Today's Observations (Above) *****


Back to Main Page
http://www.srh.noaa.gov/lzk/qfcst.php

USA.gov is the U.S. government's official web portal to all federal, state and local government web resources and services.